Prenton, United Kingdom
Current Conditions -  °F | °C
As of 12:50 AM on Saturday 20 Dec 2014 (Local Time) from EGGP Reporting Station
Scattered Clouds Scattered Clouds  
Wind Chill: 39°   Ceiling: Unl
Heat Index: 46°   Visibility: 6mi
Dew Point: 39°   Wind: 21mph
Humidity: 76%   Direction: 250°WSW
Pressure: 30.12"   Gusts: 32mph
Location:  53.37°N, 3.06°W
Report Text: EGGP 200050Z 25018G28KT 9999 FEW030 SCT043 08/04 Q1020
Loading
Personal Weather Stations






























Interactive Weather Map New forecast layout! Learn more

10-Day Weather Forecast

Advertisements
Track Severe Weather on mobile